Hlavní strana
METAR-TAF:

METAR-TAF

Letiště :

Kemi, Finsko

zeměpisná šířka: 65-47N, zeměpisná délka: 024-35E, výška: 15 m

Aktuální stav počasí

Zpráva byla vytvořena před 15 minutami, v 01:50 UTC
Jihojihozápadní vítr 11 kt
Teplota 3°C
Vlhkost vzduchu 81%
Tlak 1005 hPa
Viditelnost 10 km a více
Skoro jasno ve výšce 1900 ft
Oblačno až skoro zataženo ve výšce 9400 ft

METAR: EFKE 220150Z AUTO 21011KT 9999 FEW019 BKN094 03/00 Q1005

Čas: 05:05 (02:05 UTC)

Předpověď počasí

Zpráva byla vytvořena před 11 hodinami a 27 minutami, v 14:38 UTC
Předpověď platná od 21 v 15 UTC do 21 v 18 UTC
Jihojihozápadní vítr 3 kt
Viditelnost 10 km a více
Žádná oblačnost pod 1500 m, nevyskytují se cumulonimby.

TAF: EFKE 211438Z 2115/2118 21003KT CAVOK

Stav a předpovědi počasí z více než 4 000 letišť (zprávy METAR a TAF).

Červené a žluté tečky na mapě představují dostupné meteorologické stanice.

Když kurzor umístíte na tečku, zobrazí se název stanice.

Pak kliknutím zobrazíte stav a předpověď počasí.

Chcete-li změnit mapu, kliknutím na zelené tlačítko se znaménkem +mapu přiblížíte, kliknutím na zelené tlačítko se znaménkem – mapu oddálíte a kliknutím na zelené šipky přejdete na sousední mapy.


METAR-TAF: